Terminal Aerodrome Forecast
Issued by NWS Flagstaff, AZ

Home | Current Version | Previous Version | Text Only | Print | Product List | Glossary On
Versions: 1 2 3 4 5 6 7 8 9 10 11 12 13 14
000
FTUS45 KFGZ 312325
TAFFLG
TAF
KFLG 312325Z 0100/0124 27010KT P6SM BKN110
     FM010200 VRB05KT P6SM FEW110
     FM011800 24010KT P6SM SCT110=

USA.gov is the U.S. government's official web portal to all federal, state and local government web resources and services.